sensor_id;sensor_type;location;lat;lon;timestamp;temperature;humidity
22098;DHT22;11215;51.938;8.464;2022-08-01T00:01:38;23.40;68.20
22098;DHT22;11215;51.938;8.464;2022-08-01T00:04:04;23.40;68.20
22098;DHT22;11215;51.938;8.464;2022-08-01T00:06:30;23.40;68.20
22098;DHT22;11215;51.938;8.464;2022-08-01T00:08:55;23.40;68.30
22098;DHT22;11215;51.938;8.464;2022-08-01T00:11:21;23.40;68.40
22098;DHT22;11215;51.938;8.464;2022-08-01T00:13:47;23.40;68.50
22098;DHT22;11215;51.938;8.464;2022-08-01T00:16:14;23.40;68.50
22098;DHT22;11215;51.938;8.464;2022-08-01T00:18:41;23.40;68.60
22098;DHT22;11215;51.938;8.464;2022-08-01T00:21:07;23.40;68.60
22098;DHT22;11215;51.938;8.464;2022-08-01T00:23:33;23.40;68.50
22098;DHT22;11215;51.938;8.464;2022-08-01T00:25:58;23.40;68.50
22098;DHT22;11215;51.938;8.464;2022-08-01T00:28:24;23.30;68.50
22098;DHT22;11215;51.938;8.464;2022-08-01T00:30:50;23.30;68.50
22098;DHT22;11215;51.938;8.464;2022-08-01T00:33:15;23.30;68.60
22098;DHT22;11215;51.938;8.464;2022-08-01T00:35:41;23.30;68.80
22098;DHT22;11215;51.938;8.464;2022-08-01T00:38:06;23.30;68.60
22098;DHT22;11215;51.938;8.464;2022-08-01T00:40:32;23.30;68.50
22098;DHT22;11215;51.938;8.464;2022-08-01T00:42:58;23.30;68.50
22098;DHT22;11215;51.938;8.464;2022-08-01T00:45:23;23.30;68.30
22098;DHT22;11215;51.938;8.464;2022-08-01T00:47:49;23.30;68.20
22098;DHT22;11215;51.938;8.464;2022-08-01T00:50:15;23.30;68.20
22098;DHT22;11215;51.938;8.464;2022-08-01T00:52:41;23.20;68.20
22098;DHT22;11215;51.938;8.464;2022-08-01T00:55:08;23.20;68.40
22098;DHT22;11215;51.938;8.464;2022-08-01T00:57:34;23.20;68.60
22098;DHT22;11215;51.938;8.464;2022-08-01T01:00:00;23.20;68.60
22098;DHT22;11215;51.938;8.464;2022-08-01T01:02:26;23.10;68.70
22098;DHT22;11215;51.938;8.464;2022-08-01T01:04:52;23.10;68.80
22098;DHT22;11215;51.938;8.464;2022-08-01T01:10:00;23.10;69.20
22098;DHT22;11215;51.938;8.464;2022-08-01T01:12:50;23.10;69.80
22098;DHT22;11215;51.938;8.464;2022-08-01T01:18:02;23.10;69.40
22098;DHT22;11215;51.938;8.464;2022-08-01T01:20:32;23.10;69.70
22098;DHT22;11215;51.938;8.464;2022-08-01T01:26:05;23.10;70.10
22098;DHT22;11215;51.938;8.464;2022-08-01T01:31:08;23.10;69.50
22098;DHT22;11215;51.938;8.464;2022-08-01T01:33:35;23.10;69.50
22098;DHT22;11215;51.938;8.464;2022-08-01T01:36:05;23.10;69.50
22098;DHT22;11215;51.938;8.464;2022-08-01T01:38:37;23.10;69.80
22098;DHT22;11215;51.938;8.464;2022-08-01T01:41:07;23.10;70.10
22098;DHT22;11215;51.938;8.464;2022-08-01T01:43:35;23.10;69.60
22098;DHT22;11215;51.938;8.464;2022-08-01T01:46:03;23.10;69.80
22098;DHT22;11215;51.938;8.464;2022-08-01T01:48:30;23.10;69.80
22098;DHT22;11215;51.938;8.464;2022-08-01T01:50:58;23.10;69.80
22098;DHT22;11215;51.938;8.464;2022-08-01T01:53:25;23.10;69.70
22098;DHT22;11215;51.938;8.464;2022-08-01T01:55:53;23.10;69.70
22098;DHT22;11215;51.938;8.464;2022-08-01T01:58:21;23.10;69.80
22098;DHT22;11215;51.938;8.464;2022-08-01T02:00:48;23.10;69.70
22098;DHT22;11215;51.938;8.464;2022-08-01T02:03:16;23.10;69.70
22098;DHT22;11215;51.938;8.464;2022-08-01T02:05:43;23.00;69.60
22098;DHT22;11215;51.938;8.464;2022-08-01T02:08:10;23.00;69.60
22098;DHT22;11215;51.938;8.464;2022-08-01T02:10:39;23.00;70.40
22098;DHT22;11215;51.938;8.464;2022-08-01T02:13:05;23.00;69.50
22098;DHT22;11215;51.938;8.464;2022-08-01T02:15:33;22.90;69.40
22098;DHT22;11215;51.938;8.464;2022-08-01T02:18:01;22.90;69.40
22098;DHT22;11215;51.938;8.464;2022-08-01T02:20:29;22.90;69.40
22098;DHT22;11215;51.938;8.464;2022-08-01T02:23:11;22.90;69.50
22098;DHT22;11215;51.938;8.464;2022-08-01T02:25:50;22.90;69.90
22098;DHT22;11215;51.938;8.464;2022-08-01T02:28:21;22.90;69.80
22098;DHT22;11215;51.938;8.464;2022-08-01T02:30:53;22.90;69.40
22098;DHT22;11215;51.938;8.464;2022-08-01T02:33:24;22.80;69.10
22098;DHT22;11215;51.938;8.464;2022-08-01T02:35:57;22.80;69.10
22098;DHT22;11215;51.938;8.464;2022-08-01T02:38:26;22.80;69.10
22098;DHT22;11215;51.938;8.464;2022-08-01T02:40:54;22.80;69.00
22098;DHT22;11215;51.938;8.464;2022-08-01T02:43:24;22.80;69.00
22098;DHT22;11215;51.938;8.464;2022-08-01T02:45:53;22.80;69.00
22098;DHT22;11215;51.938;8.464;2022-08-01T02:48:20;22.70;69.00
22098;DHT22;11215;51.938;8.464;2022-08-01T02:50:49;22.70;68.90
22098;DHT22;11215;51.938;8.464;2022-08-01T02:53:19;22.70;69.00
22098;DHT22;11215;51.938;8.464;2022-08-01T02:55:46;22.70;69.10
22098;DHT22;11215;51.938;8.464;2022-08-01T02:58:15;22.70;69.00
22098;DHT22;11215;51.938;8.464;2022-08-01T03:00:42;22.70;69.10
22098;DHT22;11215;51.938;8.464;2022-08-01T03:03:09;22.70;69.10
22098;DHT22;11215;51.938;8.464;2022-08-01T03:05:37;22.60;69.10
22098;DHT22;11215;51.938;8.464;2022-08-01T03:08:06;22.70;69.30
22098;DHT22;11215;51.938;8.464;2022-08-01T03:10:33;22.60;69.10
22098;DHT22;11215;51.938;8.464;2022-08-01T03:13:03;22.60;69.10
22098;DHT22;11215;51.938;8.464;2022-08-01T03:15:31;22.60;69.20
22098;DHT22;11215;51.938;8.464;2022-08-01T03:17:59;22.60;69.30
22098;DHT22;11215;51.938;8.464;2022-08-01T03:20:27;22.50;69.40
22098;DHT22;11215;51.938;8.464;2022-08-01T03:22:53;22.60;69.40
22098;DHT22;11215;51.938;8.464;2022-08-01T03:25:20;22.50;69.50
22098;DHT22;11215;51.938;8.464;2022-08-01T03:27:54;22.50;70.40
22098;DHT22;11215;51.938;8.464;2022-08-01T03:30:22;22.50;69.90
22098;DHT22;11215;51.938;8.464;2022-08-01T03:32:48;22.50;69.60
22098;DHT22;11215;51.938;8.464;2022-08-01T03:35:14;22.50;69.60
22098;DHT22;11215;51.938;8.464;2022-08-01T03:37:48;22.50;69.70
22098;DHT22;11215;51.938;8.464;2022-08-01T03:40:41;22.50;70.30
22098;DHT22;11215;51.938;8.464;2022-08-01T03:43:18;22.50;70.50
22098;DHT22;11215;51.938;8.464;2022-08-01T03:45:49;22.50;70.10
22098;DHT22;11215;51.938;8.464;2022-08-01T03:48:24;22.50;70.00
22098;DHT22;11215;51.938;8.464;2022-08-01T03:50:51;22.50;70.00
22098;DHT22;11215;51.938;8.464;2022-08-01T03:53:20;22.50;69.90
22098;DHT22;11215;51.938;8.464;2022-08-01T03:55:47;22.50;70.00
22098;DHT22;11215;51.938;8.464;2022-08-01T03:58:14;22.50;69.90
22098;DHT22;11215;51.938;8.464;2022-08-01T04:00:40;22.50;69.90
22098;DHT22;11215;51.938;8.464;2022-08-01T04:03:08;22.50;70.00
22098;DHT22;11215;51.938;8.464;2022-08-01T04:05:34;22.40;69.90
22098;DHT22;11215;51.938;8.464;2022-08-01T04:08:00;22.40;69.90
22098;DHT22;11215;51.938;8.464;2022-08-01T04:10:28;22.40;70.00
22098;DHT22;11215;51.938;8.464;2022-08-01T04:12:54;22.40;70.10
22098;DHT22;11215;51.938;8.464;2022-08-01T04:15:20;22.40;70.20
22098;DHT22;11215;51.938;8.464;2022-08-01T04:17:46;22.40;70.10
22098;DHT22;11215;51.938;8.464;2022-08-01T04:20:12;22.40;70.20
22098;DHT22;11215;51.938;8.464;2022-08-01T04:22:39;22.40;70.30
22098;DHT22;11215;51.938;8.464;2022-08-01T04:25:09;22.40;70.40
22098;DHT22;11215;51.938;8.464;2022-08-01T04:27:38;22.40;70.60
22098;DHT22;11215;51.938;8.464;2022-08-01T04:30:06;22.40;70.60
22098;DHT22;11215;51.938;8.464;2022-08-01T04:32:35;22.40;70.60
22098;DHT22;11215;51.938;8.464;2022-08-01T04:35:06;22.40;70.70
22098;DHT22;11215;51.938;8.464;2022-08-01T04:37:33;22.40;70.70
22098;DHT22;11215;51.938;8.464;2022-08-01T04:40:03;22.40;70.50
22098;DHT22;11215;51.938;8.464;2022-08-01T04:42:31;22.40;70.60
22098;DHT22;11215;51.938;8.464;2022-08-01T04:44:57;22.40;70.60
22098;DHT22;11215;51.938;8.464;2022-08-01T04:47:24;22.40;70.60
22098;DHT22;11215;51.938;8.464;2022-08-01T04:49:50;22.40;70.70
22098;DHT22;11215;51.938;8.464;2022-08-01T04:52:16;22.40;70.80
22098;DHT22;11215;51.938;8.464;2022-08-01T04:54:43;22.50;70.80
22098;DHT22;11215;51.938;8.464;2022-08-01T04:57:09;22.50;70.80
22098;DHT22;11215;51.938;8.464;2022-08-01T04:59:37;22.50;71.70
22098;DHT22;11215;51.938;8.464;2022-08-01T05:02:16;22.50;71.00
22098;DHT22;11215;51.938;8.464;2022-08-01T05:04:44;22.50;71.40
22098;DHT22;11215;51.938;8.464;2022-08-01T05:07:11;22.50;70.80
22098;DHT22;11215;51.938;8.464;2022-08-01T05:09:38;22.50;70.70
22098;DHT22;11215;51.938;8.464;2022-08-01T05:12:05;22.50;70.80
22098;DHT22;11215;51.938;8.464;2022-08-01T05:14:31;22.50;70.90
22098;DHT22;11215;51.938;8.464;2022-08-01T05:17:01;22.50;71.00
22098;DHT22;11215;51.938;8.464;2022-08-01T05:19:35;22.50;71.40
22098;DHT22;11215;51.938;8.464;2022-08-01T05:22:03;22.50;71.10
22098;DHT22;11215;51.938;8.464;2022-08-01T05:24:37;22.50;70.90
22098;DHT22;11215;51.938;8.464;2022-08-01T05:27:03;22.50;71.00
22098;DHT22;11215;51.938;8.464;2022-08-01T05:29:29;22.50;71.00
22098;DHT22;11215;51.938;8.464;2022-08-01T05:31:54;22.50;71.00
22098;DHT22;11215;51.938;8.464;2022-08-01T05:34:21;22.50;70.90
22098;DHT22;11215;51.938;8.464;2022-08-01T05:36:46;22.50;70.90
22098;DHT22;11215;51.938;8.464;2022-08-01T05:39:12;22.50;71.00
22098;DHT22;11215;51.938;8.464;2022-08-01T05:41:38;22.50;71.00
22098;DHT22;11215;51.938;8.464;2022-08-01T05:44:04;22.50;71.10
22098;DHT22;11215;51.938;8.464;2022-08-01T05:46:30;22.60;71.30
22098;DHT22;11215;51.938;8.464;2022-08-01T05:49:00;22.60;71.10
22098;DHT22;11215;51.938;8.464;2022-08-01T05:51:26;22.60;71.20
22098;DHT22;11215;51.938;8.464;2022-08-01T05:53:52;22.60;71.10
22098;DHT22;11215;51.938;8.464;2022-08-01T05:56:18;22.60;71.20
22098;DHT22;11215;51.938;8.464;2022-08-01T05:58:44;22.60;71.30
22098;DHT22;11215;51.938;8.464;2022-08-01T06:01:11;22.60;71.40
22098;DHT22;11215;51.938;8.464;2022-08-01T06:03:36;22.60;71.50
22098;DHT22;11215;51.938;8.464;2022-08-01T06:06:02;22.60;71.40
22098;DHT22;11215;51.938;8.464;2022-08-01T06:08:28;22.70;71.60
22098;DHT22;11215;51.938;8.464;2022-08-01T06:10:54;22.70;71.70
22098;DHT22;11215;51.938;8.464;2022-08-01T06:13:20;22.70;71.80
22098;DHT22;11215;51.938;8.464;2022-08-01T06:15:46;22.70;71.80
22098;DHT22;11215;51.938;8.464;2022-08-01T06:18:13;22.70;71.80
22098;DHT22;11215;51.938;8.464;2022-08-01T06:20:39;22.80;71.90
22098;DHT22;11215;51.938;8.464;2022-08-01T06:23:05;22.80;71.80
22098;DHT22;11215;51.938;8.464;2022-08-01T06:25:31;22.80;71.70
22098;DHT22;11215;51.938;8.464;2022-08-01T06:27:56;22.90;71.70
22098;DHT22;11215;51.938;8.464;2022-08-01T06:30:22;22.90;71.40
22098;DHT22;11215;51.938;8.464;2022-08-01T06:32:48;22.90;71.30
22098;DHT22;11215;51.938;8.464;2022-08-01T06:35:14;23.00;71.20
22098;DHT22;11215;51.938;8.464;2022-08-01T06:37:40;22.90;71.00
22098;DHT22;11215;51.938;8.464;2022-08-01T06:40:08;23.00;70.90
22098;DHT22;11215;51.938;8.464;2022-08-01T06:42:35;23.00;71.00
22098;DHT22;11215;51.938;8.464;2022-08-01T06:45:11;23.00;70.80
22098;DHT22;11215;51.938;8.464;2022-08-01T06:47:37;23.00;71.00
22098;DHT22;11215;51.938;8.464;2022-08-01T06:50:04;23.10;70.80
22098;DHT22;11215;51.938;8.464;2022-08-01T06:52:30;23.10;70.70
22098;DHT22;11215;51.938;8.464;2022-08-01T06:54:56;23.00;70.50
22098;DHT22;11215;51.938;8.464;2022-08-01T06:57:21;23.10;70.50
22098;DHT22;11215;51.938;8.464;2022-08-01T06:59:47;23.00;70.40
22098;DHT22;11215;51.938;8.464;2022-08-01T07:02:13;23.10;70.40
22098;DHT22;11215;51.938;8.464;2022-08-01T07:04:38;23.00;70.20
22098;DHT22;11215;51.938;8.464;2022-08-01T07:07:04;23.10;70.20
22098;DHT22;11215;51.938;8.464;2022-08-01T07:09:30;23.10;70.30
22098;DHT22;11215;51.938;8.464;2022-08-01T07:11:55;23.10;70.70
22098;DHT22;11215;51.938;8.464;2022-08-01T07:14:22;23.10;70.30
22098;DHT22;11215;51.938;8.464;2022-08-01T07:16:48;23.00;70.30
22098;DHT22;11215;51.938;8.464;2022-08-01T07:19:14;23.10;70.40
22098;DHT22;11215;51.938;8.464;2022-08-01T07:21:40;23.00;70.30
22098;DHT22;11215;51.938;8.464;2022-08-01T07:24:07;23.00;70.40
22098;DHT22;11215;51.938;8.464;2022-08-01T07:26:33;23.10;70.40
22098;DHT22;11215;51.938;8.464;2022-08-01T07:28:58;23.10;70.50
22098;DHT22;11215;51.938;8.464;2022-08-01T07:31:24;23.00;70.50
22098;DHT22;11215;51.938;8.464;2022-08-01T07:33:50;23.10;70.40
22098;DHT22;11215;51.938;8.464;2022-08-01T07:36:16;23.10;70.40
22098;DHT22;11215;51.938;8.464;2022-08-01T07:38:43;23.10;70.20
22098;DHT22;11215;51.938;8.464;2022-08-01T07:41:08;23.10;70.50
22098;DHT22;11215;51.938;8.464;2022-08-01T07:43:34;23.10;70.60
22098;DHT22;11215;51.938;8.464;2022-08-01T07:46:01;23.20;71.60
22098;DHT22;11215;51.938;8.464;2022-08-01T07:48:27;23.20;70.70
22098;DHT22;11215;51.938;8.464;2022-08-01T07:50:53;23.20;70.50
22098;DHT22;11215;51.938;8.464;2022-08-01T07:53:18;23.30;70.40
22098;DHT22;11215;51.938;8.464;2022-08-01T07:55:44;23.30;70.10
22098;DHT22;11215;51.938;8.464;2022-08-01T07:58:10;23.30;70.50
22098;DHT22;11215;51.938;8.464;2022-08-01T08:00:35;23.40;69.70
22098;DHT22;11215;51.938;8.464;2022-08-01T08:03:01;23.40;69.70
22098;DHT22;11215;51.938;8.464;2022-08-01T08:05:27;23.40;69.80
22098;DHT22;11215;51.938;8.464;2022-08-01T08:07:53;23.40;69.50
22098;DHT22;11215;51.938;8.464;2022-08-01T08:10:18;23.40;69.20
22098;DHT22;11215;51.938;8.464;2022-08-01T08:12:44;23.40;69.20
22098;DHT22;11215;51.938;8.464;2022-08-01T08:15:11;23.40;69.20
22098;DHT22;11215;51.938;8.464;2022-08-01T08:17:37;23.50;69.10
22098;DHT22;11215;51.938;8.464;2022-08-01T08:20:05;23.50;69.70
22098;DHT22;11215;51.938;8.464;2022-08-01T08:22:31;23.50;68.90
22098;DHT22;11215;51.938;8.464;2022-08-01T08:24:56;23.50;68.90
22098;DHT22;11215;51.938;8.464;2022-08-01T08:27:22;23.60;69.20
22098;DHT22;11215;51.938;8.464;2022-08-01T08:29:48;23.60;69.20
22098;DHT22;11215;51.938;8.464;2022-08-01T08:32:13;23.70;70.00
22098;DHT22;11215;51.938;8.464;2022-08-01T08:34:39;23.70;69.00
22098;DHT22;11215;51.938;8.464;2022-08-01T08:37:05;23.80;69.10
22098;DHT22;11215;51.938;8.464;2022-08-01T08:39:30;23.90;69.10
22098;DHT22;11215;51.938;8.464;2022-08-01T08:41:59;24.00;68.90
22098;DHT22;11215;51.938;8.464;2022-08-01T08:44:27;24.00;68.50
22098;DHT22;11215;51.938;8.464;2022-08-01T08:46:53;24.10;68.20
22098;DHT22;11215;51.938;8.464;2022-08-01T08:49:26;24.20;68.10
22098;DHT22;11215;51.938;8.464;2022-08-01T08:51:53;24.20;68.00
22098;DHT22;11215;51.938;8.464;2022-08-01T08:54:22;24.30;68.10
22098;DHT22;11215;51.938;8.464;2022-08-01T08:56:51;24.40;67.70
22098;DHT22;11215;51.938;8.464;2022-08-01T08:59:17;24.40;67.60
22098;DHT22;11215;51.938;8.464;2022-08-01T09:01:43;24.40;67.30
22098;DHT22;11215;51.938;8.464;2022-08-01T09:04:09;24.50;67.10
22098;DHT22;11215;51.938;8.464;2022-08-01T09:06:34;24.50;66.90
22098;DHT22;11215;51.938;8.464;2022-08-01T09:09:00;24.50;66.70
22098;DHT22;11215;51.938;8.464;2022-08-01T09:11:26;24.60;66.40
22098;DHT22;11215;51.938;8.464;2022-08-01T09:14:11;24.60;66.50
22098;DHT22;11215;51.938;8.464;2022-08-01T09:16:41;24.60;65.80
22098;DHT22;11215;51.938;8.464;2022-08-01T09:19:16;24.70;66.10
22098;DHT22;11215;51.938;8.464;2022-08-01T09:21:57;24.70;65.30
22098;DHT22;11215;51.938;8.464;2022-08-01T09:24:25;24.70;65.30
22098;DHT22;11215;51.938;8.464;2022-08-01T09:26:52;24.80;65.80
22098;DHT22;11215;51.938;8.464;2022-08-01T09:29:20;24.70;65.50
22098;DHT22;11215;51.938;8.464;2022-08-01T09:31:46;24.80;64.90
22098;DHT22;11215;51.938;8.464;2022-08-01T09:34:12;24.70;64.60
22098;DHT22;11215;51.938;8.464;2022-08-01T09:37:07;24.80;64.60
22098;DHT22;11215;51.938;8.464;2022-08-01T09:39:36;24.70;64.00
22098;DHT22;11215;51.938;8.464;2022-08-01T09:42:24;24.70;64.70
22098;DHT22;11215;51.938;8.464;2022-08-01T09:44:50;24.70;64.80
22098;DHT22;11215;51.938;8.464;2022-08-01T09:47:16;24.70;64.90
22098;DHT22;11215;51.938;8.464;2022-08-01T09:49:43;24.70;64.70
22098;DHT22;11215;51.938;8.464;2022-08-01T09:52:19;24.70;65.00
22098;DHT22;11215;51.938;8.464;2022-08-01T09:55:03;24.70;64.70
22098;DHT22;11215;51.938;8.464;2022-08-01T09:57:29;24.70;64.20
22098;DHT22;11215;51.938;8.464;2022-08-01T09:59:57;24.80;64.60
22098;DHT22;11215;51.938;8.464;2022-08-01T10:02:34;24.80;64.70
22098;DHT22;11215;51.938;8.464;2022-08-01T10:05:05;24.70;64.10
22098;DHT22;11215;51.938;8.464;2022-08-01T10:07:31;24.80;64.40
22098;DHT22;11215;51.938;8.464;2022-08-01T10:10:14;24.80;64.30
22098;DHT22;11215;51.938;8.464;2022-08-01T10:12:41;24.80;63.70
22098;DHT22;11215;51.938;8.464;2022-08-01T10:15:08;24.80;64.20
22098;DHT22;11215;51.938;8.464;2022-08-01T10:17:35;24.80;64.30
22098;DHT22;11215;51.938;8.464;2022-08-01T10:20:03;24.80;64.20
22098;DHT22;11215;51.938;8.464;2022-08-01T10:22:30;24.90;63.80
22098;DHT22;11215;51.938;8.464;2022-08-01T10:24:57;24.80;63.40
22098;DHT22;11215;51.938;8.464;2022-08-01T10:27:28;24.80;63.50
22098;DHT22;11215;51.938;8.464;2022-08-01T10:29:57;24.90;63.40
22098;DHT22;11215;51.938;8.464;2022-08-01T10:32:23;24.90;63.40
22098;DHT22;11215;51.938;8.464;2022-08-01T10:34:52;24.90;63.70
22098;DHT22;11215;51.938;8.464;2022-08-01T10:37:18;24.90;63.10
22098;DHT22;11215;51.938;8.464;2022-08-01T10:39:44;24.90;63.00
22098;DHT22;11215;51.938;8.464;2022-08-01T10:42:11;25.00;62.90
22098;DHT22;11215;51.938;8.464;2022-08-01T10:44:38;24.90;62.60
22098;DHT22;11215;51.938;8.464;2022-08-01T10:47:12;25.00;62.50
22098;DHT22;11215;51.938;8.464;2022-08-01T10:49:53;24.90;62.30
22098;DHT22;11215;51.938;8.464;2022-08-01T10:52:21;24.90;62.80
22098;DHT22;11215;51.938;8.464;2022-08-01T10:54:47;24.90;62.80
22098;DHT22;11215;51.938;8.464;2022-08-01T10:57:13;24.90;62.60
22098;DHT22;11215;51.938;8.464;2022-08-01T10:59:50;24.90;62.80
22098;DHT22;11215;51.938;8.464;2022-08-01T11:02:29;24.80;62.90
22098;DHT22;11215;51.938;8.464;2022-08-01T11:05:07;24.80;63.20
22098;DHT22;11215;51.938;8.464;2022-08-01T11:07:54;24.80;63.60
22098;DHT22;11215;51.938;8.464;2022-08-01T11:10:41;24.80;63.90
22098;DHT22;11215;51.938;8.464;2022-08-01T11:13:10;24.80;63.70
22098;DHT22;11215;51.938;8.464;2022-08-01T11:15:40;24.80;63.50
22098;DHT22;11215;51.938;8.464;2022-08-01T11:21:01;24.60;63.70
22098;DHT22;11215;51.938;8.464;2022-08-01T11:23:28;24.60;63.30
22098;DHT22;11215;51.938;8.464;2022-08-01T11:28:22;24.50;63.30
22098;DHT22;11215;51.938;8.464;2022-08-01T11:41:24;24.20;65.10
22098;DHT22;11215;51.938;8.464;2022-08-01T11:49:42;24.10;66.40
22098;DHT22;11215;51.938;8.464;2022-08-01T11:52:13;24.10;66.20
22098;DHT22;11215;51.938;8.464;2022-08-01T11:54:48;24.10;66.10
22098;DHT22;11215;51.938;8.464;2022-08-01T11:57:21;24.10;66.40
22098;DHT22;11215;51.938;8.464;2022-08-01T11:59:52;24.10;66.60
22098;DHT22;11215;51.938;8.464;2022-08-01T12:02:23;24.10;66.50
22098;DHT22;11215;51.938;8.464;2022-08-01T12:04:57;24.10;66.30
22098;DHT22;11215;51.938;8.464;2022-08-01T12:07:25;24.10;66.50
22098;DHT22;11215;51.938;8.464;2022-08-01T12:10:21;24.10;66.40
22098;DHT22;11215;51.938;8.464;2022-08-01T12:12:49;24.00;67.20
22098;DHT22;11215;51.938;8.464;2022-08-01T12:15:16;24.10;66.60
22098;DHT22;11215;51.938;8.464;2022-08-01T12:17:45;24.10;66.80
22098;DHT22;11215;51.938;8.464;2022-08-01T12:20:14;24.10;67.00
22098;DHT22;11215;51.938;8.464;2022-08-01T12:22:40;24.10;67.00
22098;DHT22;11215;51.938;8.464;2022-08-01T12:27:36;24.10;66.70
22098;DHT22;11215;51.938;8.464;2022-08-01T12:30:05;24.10;66.60
22098;DHT22;11215;51.938;8.464;2022-08-01T12:32:33;24.10;67.30
22098;DHT22;11215;51.938;8.464;2022-08-01T12:37:34;24.10;66.20
22098;DHT22;11215;51.938;8.464;2022-08-01T12:40:00;24.10;66.30
22098;DHT22;11215;51.938;8.464;2022-08-01T12:42:27;24.00;66.10
22098;DHT22;11215;51.938;8.464;2022-08-01T12:44:53;24.00;66.30
22098;DHT22;11215;51.938;8.464;2022-08-01T12:47:20;24.00;66.80
22098;DHT22;11215;51.938;8.464;2022-08-01T12:49:47;24.00;67.00
22098;DHT22;11215;51.938;8.464;2022-08-01T12:52:14;24.00;66.90
22098;DHT22;11215;51.938;8.464;2022-08-01T12:55:06;24.00;66.70
22098;DHT22;11215;51.938;8.464;2022-08-01T12:57:34;23.90;67.00
22098;DHT22;11215;51.938;8.464;2022-08-01T13:02:39;23.90;67.30
22098;DHT22;11215;51.938;8.464;2022-08-01T13:05:06;23.90;67.30
22098;DHT22;11215;51.938;8.464;2022-08-01T13:10:06;23.90;67.30
22098;DHT22;11215;51.938;8.464;2022-08-01T13:12:32;23.90;67.10
22098;DHT22;11215;51.938;8.464;2022-08-01T13:14:58;24.00;67.10
22098;DHT22;11215;51.938;8.464;2022-08-01T13:17:34;24.00;67.30
22098;DHT22;11215;51.938;8.464;2022-08-01T13:20:05;24.00;67.80
22098;DHT22;11215;51.938;8.464;2022-08-01T13:22:33;24.10;67.70
22098;DHT22;11215;51.938;8.464;2022-08-01T13:25:13;24.10;67.60
22098;DHT22;11215;51.938;8.464;2022-08-01T13:27:39;24.20;67.50
22098;DHT22;11215;51.938;8.464;2022-08-01T13:30:18;24.20;67.00
22098;DHT22;11215;51.938;8.464;2022-08-01T13:32:59;24.20;66.90
22098;DHT22;11215;51.938;8.464;2022-08-01T13:35:25;24.20;66.60
22098;DHT22;11215;51.938;8.464;2022-08-01T13:37:51;24.30;66.40
22098;DHT22;11215;51.938;8.464;2022-08-01T13:40:24;24.30;66.80
22098;DHT22;11215;51.938;8.464;2022-08-01T13:42:51;24.20;66.70
22098;DHT22;11215;51.938;8.464;2022-08-01T13:45:16;24.30;66.80
22098;DHT22;11215;51.938;8.464;2022-08-01T13:47:43;24.30;67.00
22098;DHT22;11215;51.938;8.464;2022-08-01T13:50:09;24.30;66.50
22098;DHT22;11215;51.938;8.464;2022-08-01T13:52:34;24.30;66.50
22098;DHT22;11215;51.938;8.464;2022-08-01T13:55:00;24.40;66.70
22098;DHT22;11215;51.938;8.464;2022-08-01T13:57:27;24.40;67.10
22098;DHT22;11215;51.938;8.464;2022-08-01T13:59:52;24.40;67.40
22098;DHT22;11215;51.938;8.464;2022-08-01T14:02:18;24.40;67.40
22098;DHT22;11215;51.938;8.464;2022-08-01T14:04:44;24.40;66.90
22098;DHT22;11215;51.938;8.464;2022-08-01T14:07:10;24.50;66.70
22098;DHT22;11215;51.938;8.464;2022-08-01T14:09:36;24.50;66.50
22098;DHT22;11215;51.938;8.464;2022-08-01T14:12:01;24.60;66.70
22098;DHT22;11215;51.938;8.464;2022-08-01T14:14:27;24.60;66.50
22098;DHT22;11215;51.938;8.464;2022-08-01T14:16:53;24.60;66.50
22098;DHT22;11215;51.938;8.464;2022-08-01T14:19:18;24.70;66.50
22098;DHT22;11215;51.938;8.464;2022-08-01T14:21:44;24.70;66.40
22098;DHT22;11215;51.938;8.464;2022-08-01T14:24:09;24.80;66.30
22098;DHT22;11215;51.938;8.464;2022-08-01T14:26:35;24.80;66.10
22098;DHT22;11215;51.938;8.464;2022-08-01T14:29:01;24.80;66.20
22098;DHT22;11215;51.938;8.464;2022-08-01T14:31:26;24.80;66.70
22098;DHT22;11215;51.938;8.464;2022-08-01T14:33:54;24.90;66.50
22098;DHT22;11215;51.938;8.464;2022-08-01T14:36:20;25.00;66.70
22098;DHT22;11215;51.938;8.464;2022-08-01T14:38:46;25.00;66.30
22098;DHT22;11215;51.938;8.464;2022-08-01T14:41:13;25.00;65.80
22098;DHT22;11215;51.938;8.464;2022-08-01T14:43:38;25.00;65.60
22098;DHT22;11215;51.938;8.464;2022-08-01T14:46:04;25.10;65.80
22098;DHT22;11215;51.938;8.464;2022-08-01T14:48:30;25.10;65.50
22098;DHT22;11215;51.938;8.464;2022-08-01T14:50:56;25.20;65.80
22098;DHT22;11215;51.938;8.464;2022-08-01T14:53:24;25.20;65.70
22098;DHT22;11215;51.938;8.464;2022-08-01T14:56:00;25.20;65.80
22098;DHT22;11215;51.938;8.464;2022-08-01T14:58:37;25.30;65.90
22098;DHT22;11215;51.938;8.464;2022-08-01T15:01:11;25.30;65.50
22098;DHT22;11215;51.938;8.464;2022-08-01T15:04:10;25.40;65.20
22098;DHT22;11215;51.938;8.464;2022-08-01T15:06:44;25.50;64.60
22098;DHT22;11215;51.938;8.464;2022-08-01T15:09:17;25.50;63.60
22098;DHT22;11215;51.938;8.464;2022-08-01T15:11:53;25.50;64.00
22098;DHT22;11215;51.938;8.464;2022-08-01T15:14:31;25.60;63.40
22098;DHT22;11215;51.938;8.464;2022-08-01T15:17:24;25.70;63.30
22098;DHT22;11215;51.938;8.464;2022-08-01T15:23:30;25.70;63.50
22098;DHT22;11215;51.938;8.464;2022-08-01T15:26:19;25.70;62.70
22098;DHT22;11215;51.938;8.464;2022-08-01T15:29:23;25.80;62.40
22098;DHT22;11215;51.938;8.464;2022-08-01T15:32:14;25.80;62.50
22098;DHT22;11215;51.938;8.464;2022-08-01T15:35:09;25.80;62.20
22098;DHT22;11215;51.938;8.464;2022-08-01T15:37:58;25.90;62.50
22098;DHT22;11215;51.938;8.464;2022-08-01T15:40:47;25.90;62.80
22098;DHT22;11215;51.938;8.464;2022-08-01T15:43:31;25.90;61.70
22098;DHT22;11215;51.938;8.464;2022-08-01T15:45:59;25.90;61.30
22098;DHT22;11215;51.938;8.464;2022-08-01T15:52:07;26.00;60.50
22098;DHT22;11215;51.938;8.464;2022-08-01T15:54:55;26.00;61.80
22098;DHT22;11215;51.938;8.464;2022-08-01T15:57:49;26.00;61.80
22098;DHT22;11215;51.938;8.464;2022-08-01T16:00:26;26.00;60.30
22098;DHT22;11215;51.938;8.464;2022-08-01T16:02:55;26.00;61.20
22098;DHT22;11215;51.938;8.464;2022-08-01T16:18:54;26.40;60.70
22098;DHT22;11215;51.938;8.464;2022-08-01T16:24:45;26.50;59.60
22098;DHT22;11215;51.938;8.464;2022-08-01T16:27:40;26.60;59.10
22098;DHT22;11215;51.938;8.464;2022-08-01T16:30:13;26.60;58.20
22098;DHT22;11215;51.938;8.464;2022-08-01T16:32:38;26.70;59.20
22098;DHT22;11215;51.938;8.464;2022-08-01T16:35:04;26.70;59.10
22098;DHT22;11215;51.938;8.464;2022-08-01T16:37:30;26.70;58.90
22098;DHT22;11215;51.938;8.464;2022-08-01T16:39:55;26.70;59.10
22098;DHT22;11215;51.938;8.464;2022-08-01T16:42:21;26.80;58.70
22098;DHT22;11215;51.938;8.464;2022-08-01T16:44:47;26.80;58.60
22098;DHT22;11215;51.938;8.464;2022-08-01T16:47:13;26.80;58.40
22098;DHT22;11215;51.938;8.464;2022-08-01T16:49:38;26.80;58.30